Terminal Aerodrome Forecast
Issued by NWS

Home | Current Version | Previous Version | Graphics & Text | Print | Product List | Glossary On
Versions: 1 2 3 4 5 6 7 8 9 10 11 12 13 14 15 16 17 18 19 20 21 22 23 24 25 26 27 28 29 30 31 32 33
609
FTUS43 KBIS 220342 AAC
TAFDIK
TAF AMD
KDIK 220342Z 2204/2224 VRB03KT P6SM BKN110
     FM220600 27008KT 4SM BR BKN030
     FM220800 29008KT 1 1/2SM BR VCSH OVC008
     FM221000 32011KT 1/2SM FG VCSH OVC005
     FM221500 34012KT 3SM -SN OVC008
     FM221700 35012G20KT P6SM VCSH OVC003
     FM222300 01010KT P6SM OVC010=

USA.gov is the U.S. government's official web portal to all federal, state and local government web resources and services.